Time;durP1;ratioP1;P1;durP2;ratioP2;P2;SDS_P1;SDS_P2;PMS_P1;PMS_P2;Temp;Humidity;BMP_temperature;BMP_pressure;BME280_temperature;BME280_humidity;BME280_pressure;Samples;Min_cycle;Max_cycle;Signal;HPM_P1;HPM_P2
2022/04/29 00:00:34;;;;;;;16.50;8.75;;;;;;;;;;5002756;28;20033;-64
2022/04/29 00:03:00;;;;;;;17.10;8.70;;;;;;;;;;5000179;28;20400;-64
2022/04/29 00:05:25;;;;;;;17.27;8.50;;;;;;;;;;5002518;28;22462;-64
2022/04/29 00:07:51;;;;;;;16.30;8.57;;;;;;;;;;5002804;28;20036;-63
2022/04/29 00:10:16;;;;;;;18.48;8.20;;;;;;;;;;5003184;28;20288;-63
2022/04/29 00:12:43;;;;;;;16.38;8.80;;;;;;;;;;5000311;28;20436;-63
2022/04/29 00:15:12;;;;;;;14.77;8.15;;;;;;;;;;4984749;28;20336;-63
2022/04/29 00:17:37;;;;;;;16.85;8.20;;;;;;;;;;5002490;28;20057;-63
2022/04/29 00:20:03;;;;;;;18.95;7.78;;;;;;;;;;5016150;28;20260;-63
2022/04/29 00:22:31;;;;;;;17.08;8.07;;;;;;;;;;4999738;28;20741;-63
2022/04/29 00:24:56;;;;;;;16.13;8.38;;;;;;;;;;5017042;28;20086;-63
2022/04/29 00:27:22;;;;;;;18.10;7.65;;;;;;;;;;5002482;28;20033;-64
2022/04/29 00:29:47;;;;;;;14.55;7.90;;;;;;;;;;5001753;28;20029;-64
2022/04/29 00:32:15;;;;;;;15.02;7.40;;;;;;;;;;5002957;28;20033;-65
2022/04/29 00:34:40;;;;;;;21.83;7.75;;;;;;;;;;4999292;28;20432;-63
2022/04/29 00:37:10;;;;;;;13.88;7.32;;;;;;;;;;5002705;28;20049;-63
2022/04/29 00:39:38;;;;;;;14.77;8.25;;;;;;;;;;5002635;28;20216;-64
2022/04/29 00:42:11;;;;;;;10.65;6.93;;;;;;;;;;5000570;28;20284;-62
2022/04/29 00:44:37;;;;;;;13.38;7.85;;;;;;;;;;5001651;28;20061;-63
2022/04/29 00:47:04;;;;;;;15.13;7.18;;;;;;;;;;4999982;28;20036;-63
2022/04/29 00:49:29;;;;;;;12.95;6.90;;;;;;;;;;5001198;28;22338;-63
2022/04/29 00:51:54;;;;;;;15.73;7.70;;;;;;;;;;5002359;28;20040;-63
2022/04/29 00:54:27;;;;;;;16.90;7.15;;;;;;;;;;5000194;28;20067;-62
2022/04/29 00:56:54;;;;;;;12.82;7.10;;;;;;;;;;5002476;28;20052;-63
2022/04/29 00:59:24;;;;;;;15.05;6.55;;;;;;;;;;5001657;28;20420;-63
2022/04/29 01:01:52;;;;;;;14.98;7.05;;;;;;;;;;5002977;28;20106;-63
2022/04/29 01:04:31;;;;;;;25.33;8.00;;;;;;;;;;5002387;28;20034;-63
2022/04/29 01:06:56;;;;;;;14.18;7.00;;;;;;;;;;5002816;28;20220;-62
2022/04/29 01:09:22;;;;;;;14.02;6.72;;;;;;;;;;5001379;28;20029;-62
2022/04/29 01:11:47;;;;;;;13.77;6.13;;;;;;;;;;5002201;28;20622;-63
2022/04/29 01:14:13;;;;;;;13.23;6.78;;;;;;;;;;5001958;28;20139;-62
2022/04/29 01:16:41;;;;;;;15.73;6.60;;;;;;;;;;5000892;28;20037;-63
2022/04/29 01:19:07;;;;;;;13.45;6.68;;;;;;;;;;5019469;28;20025;-62
2022/04/29 01:21:32;;;;;;;13.10;6.80;;;;;;;;;;5003199;28;20035;-63
2022/04/29 01:24:00;;;;;;;11.43;6.68;;;;;;;;;;5006058;28;20296;-63
2022/04/29 01:26:25;;;;;;;10.65;6.18;;;;;;;;;;5006302;28;20045;-63
2022/04/29 01:28:51;;;;;;;13.88;6.57;;;;;;;;;;5005566;28;20345;-62
2022/04/29 01:31:16;;;;;;;10.50;6.53;;;;;;;;;;5005597;28;20033;-63
2022/04/29 01:33:42;;;;;;;14.60;6.50;;;;;;;;;;5003278;28;20051;-63
2022/04/29 01:36:09;;;;;;;14.23;6.45;;;;;;;;;;5004033;28;20033;-64
2022/04/29 01:38:34;;;;;;;12.85;7.07;;;;;;;;;;5002351;28;20164;-63
2022/04/29 01:41:00;;;;;;;17.48;6.63;;;;;;;;;;5003587;28;20619;-63
2022/04/29 01:43:25;;;;;;;15.73;6.65;;;;;;;;;;5004370;28;20025;-63
2022/04/29 01:45:51;;;;;;;16.35;6.88;;;;;;;;;;5005290;28;20246;-63
2022/04/29 01:48:16;;;;;;;18.80;6.97;;;;;;;;;;5005539;28;20152;-62
2022/04/29 01:50:41;;;;;;;13.45;7.00;;;;;;;;;;5004782;28;20665;-63
2022/04/29 01:53:06;;;;;;;19.23;7.82;;;;;;;;;;5004937;28;20144;-63
2022/04/29 01:55:32;;;;;;;18.58;7.35;;;;;;;;;;5003960;28;20701;-63
2022/04/29 01:57:57;;;;;;;16.50;7.38;;;;;;;;;;5002747;28;21845;-62
2022/04/29 02:00:25;;;;;;;12.02;6.95;;;;;;;;;;4986275;28;20086;-63
2022/04/29 02:02:50;;;;;;;12.40;6.45;;;;;;;;;;5006936;28;20258;-63
2022/04/29 02:05:15;;;;;;;15.63;6.80;;;;;;;;;;5003179;28;20037;-63
2022/04/29 02:07:44;;;;;;;16.45;7.10;;;;;;;;;;5004440;28;20036;-62
2022/04/29 02:10:09;;;;;;;16.42;6.97;;;;;;;;;;5004203;28;20025;-63
2022/04/29 02:12:35;;;;;;;10.98;6.30;;;;;;;;;;5002539;28;20182;-64
2022/04/29 02:15:01;;;;;;;13.77;7.10;;;;;;;;;;5002872;28;20048;-64
2022/04/29 02:17:29;;;;;;;13.60;6.95;;;;;;;;;;5004162;28;20041;-64
2022/04/29 02:19:55;;;;;;;15.50;6.60;;;;;;;;;;4986029;28;20305;-64
2022/04/29 02:22:22;;;;;;;20.85;6.90;;;;;;;;;;5003043;28;20061;-64
2022/04/29 02:24:48;;;;;;;17.98;6.72;;;;;;;;;;5003465;28;20795;-64
2022/04/29 02:27:13;;;;;;;13.05;6.50;;;;;;;;;;5002468;28;20349;-63
2022/04/29 02:29:38;;;;;;;17.77;6.80;;;;;;;;;;5003282;28;21774;-64
2022/04/29 02:32:04;;;;;;;14.95;6.07;;;;;;;;;;5004898;28;20029;-65
2022/04/29 02:34:29;;;;;;;12.73;6.32;;;;;;;;;;5003454;28;20477;-64
2022/04/29 02:36:55;;;;;;;14.45;6.82;;;;;;;;;;5008573;28;20096;-65
2022/04/29 02:39:20;;;;;;;12.52;6.82;;;;;;;;;;5004393;28;20029;-63
2022/04/29 02:41:46;;;;;;;10.50;6.18;;;;;;;;;;5004249;28;20569;-63
2022/04/29 02:44:11;;;;;;;13.50;6.50;;;;;;;;;;5004511;28;20031;-65
2022/04/29 02:47:06;;;;;;;19.00;6.28;;;;;;;;;;5002131;28;20113;-63
2022/04/29 02:49:22;;;;;;;13.13;5.57;;;;;;;;;;5003801;28;20127;-63
2022/04/29 02:51:50;;;;;;;13.98;5.95;;;;;;;;;;5004244;28;20328;-63
2022/04/29 02:54:15;;;;;;;13.93;6.40;;;;;;;;;;5002369;28;20045;-63
2022/04/29 02:56:41;;;;;;;15.85;6.38;;;;;;;;;;5003235;28;20033;-63
2022/04/29 02:59:06;;;;;;;14.82;6.53;;;;;;;;;;5003649;28;20020;-64
2022/04/29 03:01:33;;;;;;;20.45;6.90;;;;;;;;;;5004486;28;20167;-64
2022/04/29 03:03:59;;;;;;;10.60;5.50;;;;;;;;;;5001962;28;20745;-63
2022/04/29 03:06:24;;;;;;;13.60;6.32;;;;;;;;;;5003353;28;20025;-64
2022/04/29 03:08:49;;;;;;;17.33;6.22;;;;;;;;;;5003192;28;20041;-64
2022/04/29 03:11:15;;;;;;;13.90;5.97;;;;;;;;;;5007255;28;20037;-63
2022/04/29 03:13:43;;;;;;;14.18;6.07;;;;;;;;;;4985390;28;20144;-63
2022/04/29 03:16:08;;;;;;;13.15;6.43;;;;;;;;;;5003101;28;20566;-62
2022/04/29 03:18:33;;;;;;;13.02;5.93;;;;;;;;;;5001541;28;20064;-63
2022/04/29 03:20:59;;;;;;;14.43;6.57;;;;;;;;;;5003705;28;20028;-63
2022/04/29 03:23:25;;;;;;;13.93;5.97;;;;;;;;;;5001876;28;20701;-62
2022/04/29 03:25:53;;;;;;;12.88;6.50;;;;;;;;;;5003596;28;20110;-63
2022/04/29 03:28:18;;;;;;;13.90;5.82;;;;;;;;;;5003074;28;20025;-63
2022/04/29 03:30:45;;;;;;;17.15;6.57;;;;;;;;;;5004190;28;20347;-62
2022/04/29 03:33:13;;;;;;;15.98;6.32;;;;;;;;;;5004201;28;20021;-63
2022/04/29 03:35:41;;;;;;;10.85;6.40;;;;;;;;;;5002427;28;20887;-63
2022/04/29 03:38:07;;;;;;;12.77;6.15;;;;;;;;;;5001122;28;20041;-63
2022/04/29 03:40:32;;;;;;;15.07;7.07;;;;;;;;;;5003372;28;20583;-63
2022/04/29 03:42:58;;;;;;;14.13;6.68;;;;;;;;;;5003565;28;20362;-63
2022/04/29 03:45:24;;;;;;;14.30;6.60;;;;;;;;;;5002447;28;20137;-63
2022/04/29 03:47:51;;;;;;;17.30;7.18;;;;;;;;;;5003798;28;20193;-63
2022/04/29 03:50:16;;;;;;;19.80;7.40;;;;;;;;;;5002569;28;20047;-63
2022/04/29 03:53:00;;;;;;;15.32;7.30;;;;;;;;;;5001352;28;22365;-62
2022/04/29 03:55:26;;;;;;;13.90;6.95;;;;;;;;;;4999877;28;20162;-63
2022/04/29 03:57:55;;;;;;;12.90;6.70;;;;;;;;;;5003416;28;20257;-63
2022/04/29 04:00:21;;;;;;;12.43;7.82;;;;;;;;;;5002006;28;20330;-63
2022/04/29 04:02:52;;;;;;;17.15;7.75;;;;;;;;;;5005789;28;20414;-63
2022/04/29 04:05:34;;;;;;;18.63;7.68;;;;;;;;;;4998812;28;20052;-62
2022/04/29 04:07:59;;;;;;;16.92;8.27;;;;;;;;;;4998050;28;20513;-63
2022/04/29 04:10:26;;;;;;;15.35;7.20;;;;;;;;;;4982119;28;20044;-63
2022/04/29 04:12:51;;;;;;;10.50;7.32;;;;;;;;;;4998603;28;20075;-63
2022/04/29 04:15:20;;;;;;;19.40;7.70;;;;;;;;;;4981693;28;20544;-63
2022/04/29 04:17:46;;;;;;;15.38;8.05;;;;;;;;;;4997845;28;20098;-63
2022/04/29 04:20:12;;;;;;;17.58;7.28;;;;;;;;;;4997098;28;20152;-63
2022/04/29 04:22:37;;;;;;;16.15;7.40;;;;;;;;;;4997504;28;20099;-64
2022/04/29 04:25:06;;;;;;;13.10;7.57;;;;;;;;;;4998057;28;20102;-63
2022/04/29 04:27:34;;;;;;;14.73;7.57;;;;;;;;;;4981783;28;20092;-64
2022/04/29 04:30:00;;;;;;;12.98;7.63;;;;;;;;;;4974353;28;20271;-63
2022/04/29 04:32:25;;;;;;;16.10;7.78;;;;;;;;;;4998454;28;20547;-62
2022/04/29 04:34:53;;;;;;;15.82;7.38;;;;;;;;;;4997807;28;20115;-64
2022/04/29 04:37:22;;;;;;;13.10;7.38;;;;;;;;;;5000719;28;20772;-63
2022/04/29 04:39:48;;;;;;;15.40;7.30;;;;;;;;;;5001871;28;20562;-62
2022/04/29 04:42:14;;;;;;;13.32;7.35;;;;;;;;;;4999501;28;20022;-63
2022/04/29 04:44:40;;;;;;;18.75;7.40;;;;;;;;;;5016532;28;20039;-62
2022/04/29 04:47:08;;;;;;;17.50;7.57;;;;;;;;;;5002969;28;20033;-63
2022/04/29 04:49:34;;;;;;;16.30;7.35;;;;;;;;;;5002744;28;20054;-63
2022/04/29 04:51:59;;;;;;;17.23;8.10;;;;;;;;;;5000437;28;20020;-63
2022/04/29 04:54:24;;;;;;;14.35;7.53;;;;;;;;;;5004544;28;20154;-63
2022/04/29 04:56:50;;;;;;;17.52;7.68;;;;;;;;;;5005459;28;20128;-64
2022/04/29 04:59:15;;;;;;;17.20;7.63;;;;;;;;;;5006080;28;20020;-64
2022/04/29 05:01:40;;;;;;;17.75;7.20;;;;;;;;;;5005669;28;20423;-63
2022/04/29 05:04:06;;;;;;;12.13;6.97;;;;;;;;;;5005576;28;20552;-64
2022/04/29 05:06:31;;;;;;;16.73;7.63;;;;;;;;;;5004368;28;20028;-64
2022/04/29 05:08:56;;;;;;;13.35;7.30;;;;;;;;;;5003126;28;20122;-63
2022/04/29 05:11:22;;;;;;;14.10;7.13;;;;;;;;;;5006054;28;20322;-61
2022/04/29 05:13:49;;;;;;;13.63;6.72;;;;;;;;;;5005456;28;20029;-63
2022/04/29 05:16:14;;;;;;;18.48;7.07;;;;;;;;;;5005224;28;20373;-63
2022/04/29 05:18:40;;;;;;;13.10;6.50;;;;;;;;;;5005387;28;20024;-63
2022/04/29 05:21:05;;;;;;;15.82;6.63;;;;;;;;;;5004265;28;20032;-63
2022/04/29 05:23:31;;;;;;;11.02;6.18;;;;;;;;;;5005340;28;20033;-64
2022/04/29 05:25:56;;;;;;;16.65;6.75;;;;;;;;;;5006762;28;20438;-64
2022/04/29 05:28:22;;;;;;;13.57;5.93;;;;;;;;;;5003049;28;20028;-63
2022/04/29 05:30:52;;;;;;;14.43;6.10;;;;;;;;;;5005028;28;20033;-63
2022/04/29 05:33:20;;;;;;;11.52;6.30;;;;;;;;;;5004818;28;20366;-63
2022/04/29 05:35:45;;;;;;;15.27;6.18;;;;;;;;;;5005256;28;20056;-64
2022/04/29 05:38:10;;;;;;;13.38;6.32;;;;;;;;;;5005081;28;20303;-64
2022/04/29 05:43:20;;;;;;;10.95;5.65;;;;;;;;;;5004796;28;20419;-64
2022/04/29 05:45:45;;;;;;;13.02;6.07;;;;;;;;;;4987982;28;20115;-64
2022/04/29 05:48:10;;;;;;;14.05;5.53;;;;;;;;;;5005487;28;20040;-64
2022/04/29 05:50:36;;;;;;;10.15;5.40;;;;;;;;;;5006161;28;20032;-64
2022/04/29 05:53:01;;;;;;;13.65;5.60;;;;;;;;;;5007409;28;20032;-64
2022/04/29 05:55:26;;;;;;;12.02;5.30;;;;;;;;;;5004861;28;20021;-63
2022/04/29 05:57:51;;;;;;;14.38;6.00;;;;;;;;;;5005173;28;20077;-64
2022/04/29 06:00:19;;;;;;;11.63;5.72;;;;;;;;;;5002497;28;20408;-63
2022/04/29 06:02:45;;;;;;;14.32;6.05;;;;;;;;;;5004586;28;20553;-64
2022/04/29 06:05:11;;;;;;;10.93;5.63;;;;;;;;;;5004174;28;20366;-63
2022/04/29 06:07:36;;;;;;;11.98;5.70;;;;;;;;;;5004503;28;20097;-63
2022/04/29 06:10:05;;;;;;;10.90;5.53;;;;;;;;;;5004059;28;20029;-63
2022/04/29 06:12:36;;;;;;;10.45;5.38;;;;;;;;;;5004270;28;20367;-63
2022/04/29 06:15:02;;;;;;;10.25;5.28;;;;;;;;;;5005256;28;21843;-63
2022/04/29 06:17:27;;;;;;;13.90;5.32;;;;;;;;;;5002100;28;20025;-63
2022/04/29 06:19:53;;;;;;;10.20;5.70;;;;;;;;;;5003792;28;20063;-63
2022/04/29 06:22:18;;;;;;;16.00;6.47;;;;;;;;;;5002559;28;20209;-62
2022/04/29 06:24:44;;;;;;;13.45;6.03;;;;;;;;;;5004073;28;20079;-63
2022/04/29 06:27:12;;;;;;;10.13;5.90;;;;;;;;;;5003556;28;20301;-63
2022/04/29 06:29:37;;;;;;;14.30;6.05;;;;;;;;;;5003587;28;20395;-63
2022/04/29 06:32:03;;;;;;;9.02;5.80;;;;;;;;;;5003783;28;20033;-63
2022/04/29 06:34:28;;;;;;;13.38;6.05;;;;;;;;;;5003624;28;20087;-65
2022/04/29 06:36:54;;;;;;;11.48;5.82;;;;;;;;;;5003786;28;20045;-65
2022/04/29 06:39:21;;;;;;;15.82;6.25;;;;;;;;;;5003075;28;20065;-65
2022/04/29 06:41:47;;;;;;;12.45;6.85;;;;;;;;;;5003367;28;20516;-65
2022/04/29 06:44:14;;;;;;;14.30;6.00;;;;;;;;;;5002793;28;20545;-64
2022/04/29 06:46:40;;;;;;;9.63;5.82;;;;;;;;;;5003232;28;20102;-65
2022/04/29 06:49:05;;;;;;;11.55;5.82;;;;;;;;;;5001169;28;20037;-65
2022/04/29 06:51:30;;;;;;;12.73;6.15;;;;;;;;;;5003162;28;20143;-65
2022/04/29 06:53:55;;;;;;;8.85;5.10;;;;;;;;;;5003419;28;20053;-65
2022/04/29 06:56:23;;;;;;;9.43;5.50;;;;;;;;;;5001430;28;20036;-64
2022/04/29 06:58:49;;;;;;;10.15;5.15;;;;;;;;;;5001217;28;20737;-65
2022/04/29 07:01:14;;;;;;;13.68;5.40;;;;;;;;;;5017089;28;20021;-65
2022/04/29 07:03:43;;;;;;;12.15;5.57;;;;;;;;;;5003188;28;20738;-65
2022/04/29 07:06:09;;;;;;;9.73;5.45;;;;;;;;;;5000335;28;20367;-65
2022/04/29 07:08:34;;;;;;;13.98;5.80;;;;;;;;;;5002729;28;20058;-66
2022/04/29 07:10:59;;;;;;;13.95;5.72;;;;;;;;;;5006381;28;20416;-66
2022/04/29 07:13:25;;;;;;;12.93;5.78;;;;;;;;;;5002971;28;20043;-66
2022/04/29 07:15:50;;;;;;;10.13;5.35;;;;;;;;;;5016829;28;20359;-65
2022/04/29 07:18:20;;;;;;;12.57;5.30;;;;;;;;;;5002189;28;20262;-66
2022/04/29 07:20:47;;;;;;;10.90;5.43;;;;;;;;;;5000815;28;20021;-68
2022/04/29 07:23:15;;;;;;;13.35;5.25;;;;;;;;;;5003213;28;20131;-66
2022/04/29 07:25:41;;;;;;;13.13;5.32;;;;;;;;;;5002832;28;20033;-66
2022/04/29 07:28:07;;;;;;;11.60;5.32;;;;;;;;;;5002363;28;20025;-66
2022/04/29 07:30:32;;;;;;;14.40;5.50;;;;;;;;;;5002739;28;20359;-67
2022/04/29 07:33:00;;;;;;;9.35;5.35;;;;;;;;;;5001994;28;20021;-66
2022/04/29 07:43:38;;;;;;;6.38;4.53;;;;;;;;;;5006089;28;20593;-65
2022/04/29 07:46:04;;;;;;;11.45;4.50;;;;;;;;;;5005734;28;20438;-65
2022/04/29 07:48:30;;;;;;;8.30;4.55;;;;;;;;;;5001944;28;20033;-65
2022/04/29 07:50:58;;;;;;;11.65;4.60;;;;;;;;;;5001831;28;20021;-64
2022/04/29 07:53:23;;;;;;;13.68;4.82;;;;;;;;;;5002842;28;20028;-65
2022/04/29 07:55:52;;;;;;;10.90;4.55;;;;;;;;;;5000251;28;20108;-67
2022/04/29 07:58:20;;;;;;;7.35;4.95;;;;;;;;;;5001294;28;20541;-65
2022/04/29 08:00:45;;;;;;;11.23;4.80;;;;;;;;;;5001332;28;20112;-64
2022/04/29 08:03:11;;;;;;;9.45;4.53;;;;;;;;;;5000762;28;20333;-65
2022/04/29 08:05:36;;;;;;;9.50;4.80;;;;;;;;;;5001564;28;20060;-64
2022/04/29 08:08:01;;;;;;;7.82;4.60;;;;;;;;;;5004400;28;20478;-65
2022/04/29 08:10:29;;;;;;;13.60;4.93;;;;;;;;;;5001860;28;20458;-64
2022/04/29 08:12:55;;;;;;;9.20;4.35;;;;;;;;;;5000177;28;20208;-66
2022/04/29 08:15:20;;;;;;;10.20;4.88;;;;;;;;;;5002144;28;20046;-65
2022/04/29 08:17:49;;;;;;;11.20;4.28;;;;;;;;;;5001553;28;20037;-64
2022/04/29 08:20:14;;;;;;;11.27;5.03;;;;;;;;;;5001953;28;20132;-65
2022/04/29 08:22:42;;;;;;;9.73;4.45;;;;;;;;;;5001696;28;20036;-65
2022/04/29 08:25:07;;;;;;;9.38;4.55;;;;;;;;;;5000071;28;21919;-70
2022/04/29 08:27:32;;;;;;;11.30;4.85;;;;;;;;;;5005442;28;20032;-65
2022/04/29 08:29:58;;;;;;;9.30;4.60;;;;;;;;;;5006381;28;20168;-65
2022/04/29 08:32:25;;;;;;;7.28;4.32;;;;;;;;;;5005373;28;20049;-65
2022/04/29 08:34:51;;;;;;;10.02;4.30;;;;;;;;;;5005454;28;20040;-65
2022/04/29 08:37:20;;;;;;;10.05;4.20;;;;;;;;;;5005605;28;21878;-70
2022/04/29 08:39:45;;;;;;;10.18;4.57;;;;;;;;;;4987147;28;20037;-65
2022/04/29 08:42:11;;;;;;;10.70;4.57;;;;;;;;;;5006504;28;20300;-66
2022/04/29 08:44:39;;;;;;;11.07;5.32;;;;;;;;;;5005404;28;20422;-68
2022/04/29 08:47:08;;;;;;;7.05;4.55;;;;;;;;;;5005591;28;20032;-70
2022/04/29 08:49:34;;;;;;;8.98;4.38;;;;;;;;;;5003432;28;20036;-65
2022/04/29 08:52:02;;;;;;;8.23;4.55;;;;;;;;;;5006160;28;20032;-64
2022/04/29 08:59:59;;;;;;;11.73;4.68;;;;;;;;;;5005197;28;20521;-65
2022/04/29 09:02:26;;;;;;;8.25;4.53;;;;;;;;;;5005985;28;20032;-65
2022/04/29 09:04:53;;;;;;;8.20;4.53;;;;;;;;;;5004984;28;20022;-66
2022/04/29 09:07:19;;;;;;;9.45;4.53;;;;;;;;;;5003562;28;20140;-66
2022/04/29 09:09:46;;;;;;;7.75;4.57;;;;;;;;;;5005167;28;20173;-66
2022/04/29 09:12:16;;;;;;;11.05;4.30;;;;;;;;;;5005371;28;20033;-66
2022/04/29 09:14:41;;;;;;;15.90;5.25;;;;;;;;;;5005029;28;20530;-66
2022/04/29 09:17:25;;;;;;;5.53;4.38;;;;;;;;;;5002636;28;20039;-66
2022/04/29 09:19:50;;;;;;;9.77;4.65;;;;;;;;;;5003075;28;20033;-65
2022/04/29 09:22:16;;;;;;;11.32;5.30;;;;;;;;;;5004432;28;20664;-65
2022/04/29 09:24:41;;;;;;;8.82;5.10;;;;;;;;;;5003097;28;20400;-65
2022/04/29 09:27:06;;;;;;;9.30;4.85;;;;;;;;;;5004622;28;20555;-66
2022/04/29 09:29:39;;;;;;;8.13;5.00;;;;;;;;;;5002160;28;20370;-66
2022/04/29 09:32:04;;;;;;;10.48;4.80;;;;;;;;;;5003870;28;20659;-67
2022/04/29 09:34:43;;;;;;;12.57;4.70;;;;;;;;;;5004430;28;20247;-66
2022/04/29 09:37:35;;;;;;;8.55;4.55;;;;;;;;;;5002661;28;20218;-66
2022/04/29 09:40:01;;;;;;;8.57;4.18;;;;;;;;;;5003603;28;22297;-66
2022/04/29 09:42:39;;;;;;;8.10;4.00;;;;;;;;;;5003119;28;20443;-66
2022/04/29 09:45:20;;;;;;;7.55;3.80;;;;;;;;;;5004040;28;20124;-66
2022/04/29 09:47:46;;;;;;;8.30;3.90;;;;;;;;;;5002322;28;20883;-66
2022/04/29 09:50:14;;;;;;;6.55;3.80;;;;;;;;;;5008008;28;20384;-66
2022/04/29 09:52:40;;;;;;;8.60;4.07;;;;;;;;;;5002789;28;20056;-66
2022/04/29 09:55:09;;;;;;;6.38;4.13;;;;;;;;;;5004033;28;20078;-66
2022/04/29 09:57:45;;;;;;;6.20;3.85;;;;;;;;;;5004599;28;20029;-64
2022/04/29 10:00:11;;;;;;;9.23;4.43;;;;;;;;;;5004217;28;20743;-65
2022/04/29 10:02:36;;;;;;;7.22;4.10;;;;;;;;;;5004615;28;20017;-66
2022/04/29 10:05:01;;;;;;;8.70;4.10;;;;;;;;;;5019351;28;20048;-65
2022/04/29 10:07:27;;;;;;;9.30;4.35;;;;;;;;;;5003781;28;20894;-66
2022/04/29 10:09:58;;;;;;;9.43;5.38;;;;;;;;;;5003885;28;20132;-64
2022/04/29 10:12:25;;;;;;;8.63;4.63;;;;;;;;;;5003699;28;20259;-65
2022/04/29 10:15:05;;;;;;;8.43;4.80;;;;;;;;;;5002485;28;20070;-64
2022/04/29 10:23:20;;;;;;;10.50;4.82;;;;;;;;;;5003612;28;20891;-64
2022/04/29 10:25:48;;;;;;;10.30;4.75;;;;;;;;;;5001366;28;20032;-65
2022/04/29 10:28:17;;;;;;;7.28;4.90;;;;;;;;;;5003629;28;20420;-64
2022/04/29 10:30:43;;;;;;;12.13;4.68;;;;;;;;;;5003280;28;22503;-65
2022/04/29 10:33:10;;;;;;;8.85;5.25;;;;;;;;;;5003112;28;20444;-65
2022/04/29 10:35:53;;;;;;;6.25;4.75;;;;;;;;;;5003343;28;20869;-65
2022/04/29 10:38:32;;;;;;;11.25;5.10;;;;;;;;;;5003071;28;20168;-64
2022/04/29 10:41:06;;;;;;;10.70;5.45;;;;;;;;;;5003114;28;20036;-64
2022/04/29 10:43:32;;;;;;;8.07;5.28;;;;;;;;;;5003094;28;20040;-66
2022/04/29 10:46:03;;;;;;;10.63;5.03;;;;;;;;;;5003312;28;20433;-64
2022/04/29 10:48:29;;;;;;;7.15;5.22;;;;;;;;;;5003345;28;20032;-64
2022/04/29 10:50:54;;;;;;;9.35;5.32;;;;;;;;;;5002008;28;20063;-65
2022/04/29 10:53:21;;;;;;;8.50;4.95;;;;;;;;;;5000731;28;20439;-64
2022/04/29 10:55:46;;;;;;;10.75;5.22;;;;;;;;;;5000755;28;20037;-64
2022/04/29 10:58:22;;;;;;;8.88;5.28;;;;;;;;;;5003949;28;20045;-65
2022/04/29 11:01:13;;;;;;;8.95;5.10;;;;;;;;;;5002464;28;20075;-64
2022/04/29 11:03:40;;;;;;;13.47;5.20;;;;;;;;;;4988870;28;20033;-65
2022/04/29 11:06:07;;;;;;;9.10;5.38;;;;;;;;;;5002116;28;20583;-65
2022/04/29 11:08:32;;;;;;;6.50;4.97;;;;;;;;;;5002627;28;20201;-64
2022/04/29 11:11:02;;;;;;;8.02;5.50;;;;;;;;;;5000086;28;20022;-66
2022/04/29 11:13:27;;;;;;;9.38;5.88;;;;;;;;;;5003433;28;20034;-65
2022/04/29 11:16:05;;;;;;;10.50;5.90;;;;;;;;;;5002145;28;20033;-64
2022/04/29 11:18:31;;;;;;;11.65;5.88;;;;;;;;;;5003325;28;20215;-64
2022/04/29 11:20:57;;;;;;;9.77;6.00;;;;;;;;;;5006061;28;20036;-65
2022/04/29 11:26:10;;;;;;;8.90;6.55;;;;;;;;;;5002190;28;20432;-64
2022/04/29 11:28:36;;;;;;;8.98;6.07;;;;;;;;;;5002312;28;20021;-65
2022/04/29 11:31:06;;;;;;;10.75;5.80;;;;;;;;;;5002662;28;20048;-65
2022/04/29 11:33:31;;;;;;;10.75;5.82;;;;;;;;;;5002204;28;20572;-65
2022/04/29 11:36:01;;;;;;;9.30;5.93;;;;;;;;;;5001857;28;20255;-64
2022/04/29 11:38:28;;;;;;;11.73;5.55;;;;;;;;;;5002002;28;20745;-64
2022/04/29 11:40:59;;;;;;;8.95;5.60;;;;;;;;;;5002229;28;20064;-66
2022/04/29 11:43:25;;;;;;;13.02;5.70;;;;;;;;;;5002146;28;20134;-64
2022/04/29 11:46:05;;;;;;;8.88;5.45;;;;;;;;;;4999908;28;20037;-65
2022/04/29 11:48:30;;;;;;;8.10;5.32;;;;;;;;;;5001537;28;20024;-65
2022/04/29 11:50:57;;;;;;;8.95;4.90;;;;;;;;;;5001279;28;20128;-65
2022/04/29 11:53:23;;;;;;;8.32;4.80;;;;;;;;;;5002596;28;20582;-65
2022/04/29 11:55:51;;;;;;;11.48;5.00;;;;;;;;;;5000563;28;20185;-65
2022/04/29 11:58:17;;;;;;;9.85;4.65;;;;;;;;;;5002322;28;20330;-65
2022/04/29 12:00:48;;;;;;;9.32;4.60;;;;;;;;;;5001594;28;20252;-65
2022/04/29 12:03:17;;;;;;;9.60;5.88;;;;;;;;;;5001218;28;20017;-65
2022/04/29 12:05:43;;;;;;;8.05;5.22;;;;;;;;;;5004412;28;20082;-65
2022/04/29 12:08:09;;;;;;;7.97;5.32;;;;;;;;;;5001900;28;20028;-65
2022/04/29 12:10:34;;;;;;;7.40;4.80;;;;;;;;;;5000278;28;20056;-65
2022/04/29 12:13:01;;;;;;;8.10;4.80;;;;;;;;;;5001396;28;20397;-65
2022/04/29 12:15:37;;;;;;;9.63;4.97;;;;;;;;;;5001417;28;20083;-65
2022/04/29 12:18:07;;;;;;;9.13;5.35;;;;;;;;;;5002139;28;20025;-65
2022/04/29 12:20:32;;;;;;;10.48;6.00;;;;;;;;;;5000983;28;20274;-65
2022/04/29 12:23:27;;;;;;;7.50;4.88;;;;;;;;;;4999535;28;20601;-65
2022/04/29 12:25:54;;;;;;;10.93;5.57;;;;;;;;;;4997265;28;20098;-64
2022/04/29 12:28:25;;;;;;;8.00;4.88;;;;;;;;;;5001515;28;20299;-65
2022/04/29 12:36:31;;;;;;;9.45;5.45;;;;;;;;;;5000831;28;20434;-65
2022/04/29 12:39:03;;;;;;;8.35;5.28;;;;;;;;;;5001541;28;20049;-65
2022/04/29 12:41:30;;;;;;;8.90;5.45;;;;;;;;;;5001568;28;20361;-64
2022/04/29 12:44:09;;;;;;;9.07;5.32;;;;;;;;;;5004917;28;20033;-64
2022/04/29 12:46:35;;;;;;;10.65;5.53;;;;;;;;;;4999581;28;20289;-65
2022/04/29 12:49:00;;;;;;;11.82;6.00;;;;;;;;;;4998881;28;20302;-64
2022/04/29 12:51:28;;;;;;;8.60;6.05;;;;;;;;;;5001527;28;20033;-64
2022/04/29 12:53:56;;;;;;;9.60;6.28;;;;;;;;;;5001168;28;20029;-66
2022/04/29 12:56:22;;;;;;;9.32;6.20;;;;;;;;;;4999531;28;20033;-65
2022/04/29 12:58:48;;;;;;;11.00;5.40;;;;;;;;;;5001450;28;20079;-64
2022/04/29 13:01:15;;;;;;;8.60;6.20;;;;;;;;;;5001230;28;20125;-64
2022/04/29 13:03:47;;;;;;;8.40;6.10;;;;;;;;;;4982849;28;20107;-65
2022/04/29 13:06:12;;;;;;;10.80;6.22;;;;;;;;;;5000866;28;20029;-65
2022/04/29 13:08:38;;;;;;;9.10;6.10;;;;;;;;;;4999877;28;20403;-65
2022/04/29 13:11:03;;;;;;;10.25;6.30;;;;;;;;;;5000455;28;20025;-65
2022/04/29 13:13:28;;;;;;;11.75;6.18;;;;;;;;;;5001257;28;20055;-65
2022/04/29 13:15:54;;;;;;;11.32;6.03;;;;;;;;;;5004595;28;20260;-65
2022/04/29 13:18:20;;;;;;;7.25;5.25;;;;;;;;;;5004694;28;20166;-64
2022/04/29 13:20:48;;;;;;;10.85;5.70;;;;;;;;;;5004834;28;20029;-65
2022/04/29 13:23:13;;;;;;;6.97;5.47;;;;;;;;;;5004603;28;20449;-66
2022/04/29 13:25:43;;;;;;;8.57;5.55;;;;;;;;;;5004588;28;20028;-65
2022/04/29 13:28:09;;;;;;;12.35;5.43;;;;;;;;;;5003123;28;20040;-64
2022/04/29 13:30:35;;;;;;;7.97;5.40;;;;;;;;;;5002815;28;21855;-64
2022/04/29 13:33:01;;;;;;;7.65;5.63;;;;;;;;;;5004200;28;20138;-65
2022/04/29 13:35:26;;;;;;;12.57;5.25;;;;;;;;;;5004377;28;20017;-65
2022/04/29 13:37:55;;;;;;;11.40;5.60;;;;;;;;;;5004140;28;20037;-68
2022/04/29 13:40:21;;;;;;;8.05;5.15;;;;;;;;;;5005153;28;20339;-66
2022/04/29 13:42:48;;;;;;;6.78;5.10;;;;;;;;;;5002637;28;20243;-65
2022/04/29 13:45:17;;;;;;;6.55;4.65;;;;;;;;;;5003679;28;20519;-64
2022/04/29 13:47:42;;;;;;;10.43;5.40;;;;;;;;;;5018750;28;20036;-66
2022/04/29 13:50:08;;;;;;;8.30;4.78;;;;;;;;;;5004137;28;20079;-65
2022/04/29 13:55:18;;;;;;;9.82;5.03;;;;;;;;;;5003898;28;20226;-66
2022/04/29 13:57:43;;;;;;;10.70;4.65;;;;;;;;;;5004300;28;20048;-67
2022/04/29 14:00:13;;;;;;;7.88;4.97;;;;;;;;;;5002065;28;20441;-67
2022/04/29 14:02:38;;;;;;;8.10;4.90;;;;;;;;;;5002459;28;20238;-66
2022/04/29 14:05:04;;;;;;;6.78;4.78;;;;;;;;;;5004292;28;20512;-66
2022/04/29 14:07:30;;;;;;;9.50;4.88;;;;;;;;;;5003921;28;20021;-66
2022/04/29 14:09:57;;;;;;;10.75;4.90;;;;;;;;;;5003521;28;20525;-66
2022/04/29 14:12:25;;;;;;;8.18;4.75;;;;;;;;;;5003719;28;20033;-66
2022/04/29 14:14:51;;;;;;;8.85;4.90;;;;;;;;;;5001557;28;20598;-66
2022/04/29 14:17:16;;;;;;;9.70;5.22;;;;;;;;;;5002189;28;20065;-66
2022/04/29 14:19:42;;;;;;;8.82;4.97;;;;;;;;;;5006844;28;20027;-66
2022/04/29 14:22:08;;;;;;;8.63;5.35;;;;;;;;;;5003427;28;20287;-67
2022/04/29 14:24:33;;;;;;;7.85;4.65;;;;;;;;;;5003555;28;20211;-65
2022/04/29 14:26:59;;;;;;;8.73;4.75;;;;;;;;;;5003987;28;21888;-65
2022/04/29 14:29:25;;;;;;;6.18;4.80;;;;;;;;;;5003657;28;20355;-65
2022/04/29 14:31:50;;;;;;;9.32;4.95;;;;;;;;;;5003058;28;22009;-65
2022/04/29 14:34:16;;;;;;;6.95;4.80;;;;;;;;;;5003210;28;20112;-65
2022/04/29 14:36:42;;;;;;;9.13;4.93;;;;;;;;;;5003091;28;20055;-66
2022/04/29 14:39:07;;;;;;;10.32;4.40;;;;;;;;;;5003301;28;20045;-66
2022/04/29 14:41:32;;;;;;;7.50;4.85;;;;;;;;;;5004826;28;20160;-67
2022/04/29 14:43:58;;;;;;;8.52;4.22;;;;;;;;;;4985019;28;20130;-67
2022/04/29 14:46:26;;;;;;;5.32;3.85;;;;;;;;;;5001259;28;20033;-67
2022/04/29 14:48:52;;;;;;;10.00;4.20;;;;;;;;;;5003600;28;20421;-68
2022/04/29 14:51:17;;;;;;;6.28;4.30;;;;;;;;;;5003138;28;20450;-66
2022/04/29 14:53:43;;;;;;;7.30;3.60;;;;;;;;;;5003168;28;20140;-67
2022/04/29 14:56:08;;;;;;;6.43;4.03;;;;;;;;;;5006392;28;20676;-65
2022/04/29 14:58:34;;;;;;;7.22;4.30;;;;;;;;;;5002638;28;20068;-66
2022/04/29 15:00:59;;;;;;;5.15;4.07;;;;;;;;;;4985513;28;20033;-64
2022/04/29 15:03:27;;;;;;;7.40;3.83;;;;;;;;;;5001275;28;20021;-65
2022/04/29 15:05:54;;;;;;;6.07;3.70;;;;;;;;;;5002339;28;20130;-70